Map

Track Data

SID SEASON NUMBER BASIN SUBBASIN NAME ISO_TIME NATURE LAT LON WMO_WIND WMO_PRES WMO_AGENCY TRACK_TYPE DIST2LAND LANDFALL IFLAG USA_AGENCY USA_ATCF_ID USA_LAT USA_LON USA_RECORD USA_STATUS USA_WIND USA_PRES USA_SSHS USA_R34_NE USA_R34_SE USA_R34_SW USA_R34_NW USA_R50_NE USA_R50_SE USA_R50_SW USA_R50_NW USA_R64_NE USA_R64_SE USA_R64_SW USA_R64_NW USA_POCI USA_ROCI USA_RMW USA_EYE TOKYO_LAT TOKYO_LON TOKYO_GRADE TOKYO_WIND TOKYO_PRES TOKYO_R50_DIR TOKYO_R50_LONG TOKYO_R50_SHORT TOKYO_R30_DIR TOKYO_R30_LONG TOKYO_R30_SHORT TOKYO_LAND CMA_LAT CMA_LON CMA_CAT CMA_WIND CMA_PRES HKO_LAT HKO_LON HKO_CAT HKO_WIND HKO_PRES NEWDELHI_LAT NEWDELHI_LON NEWDELHI_GRADE NEWDELHI_WIND NEWDELHI_PRES NEWDELHI_CI NEWDELHI_DP NEWDELHI_POCI REUNION_LAT REUNION_LON REUNION_TYPE REUNION_WIND REUNION_PRES REUNION_TNUM REUNION_CI REUNION_RMW REUNION_R34_NE REUNION_R34_SE REUNION_R34_SW REUNION_R34_NW REUNION_R50_NE REUNION_R50_SE REUNION_R50_SW REUNION_R50_NW REUNION_R64_NE REUNION_R64_SE REUNION_R64_SW REUNION_R64_NW BOM_LAT BOM_LON BOM_TYPE BOM_WIND BOM_PRES BOM_TNUM BOM_CI BOM_RMW BOM_R34_NE BOM_R34_SE BOM_R34_SW BOM_R34_NW BOM_R50_NE BOM_R50_SE BOM_R50_SW BOM_R50_NW BOM_R64_NE BOM_R64_SE BOM_R64_SW BOM_R64_NW BOM_ROCI BOM_POCI BOM_EYE BOM_POS_METHOD BOM_PRES_METHOD NADI_LAT NADI_LON NADI_CAT NADI_WIND NADI_PRES WELLINGTON_LAT WELLINGTON_LON WELLINGTON_WIND WELLINGTON_PRES DS824_LAT DS824_LON DS824_STAGE DS824_WIND DS824_PRES TD9636_LAT TD9636_LON TD9636_STAGE TD9636_WIND TD9636_PRES TD9635_LAT TD9635_LON TD9635_WIND TD9635_PRES TD9635_ROCI NEUMANN_LAT NEUMANN_LON NEUMANN_CLASS NEUMANN_WIND NEUMANN_PRES MLC_LAT MLC_LON MLC_CLASS MLC_WIND MLC_PRES USA_GUST BOM_GUST BOM_GUST_PER REUNION_GUST REUNION_GUST_PER USA_SEAHGT USA_SEARAD_NE USA_SEARAD_SE USA_SEARAD_SW USA_SEARAD_NW STORM_SPEED STORM_DIR
1945275N09161 1945 68 WP MM LOUISE 1945-10-02 00:00:00 TS 9.00000 161.000 main 1702 1666 O________OOO__ jtwc_wp WP231945 9.00000 161.000 25 -1 9.00000 161.000 TC 25 9.00000 161.000 1 25 9.00000 161.000 25 1005 120 14 282
1945275N09161 1945 68 WP MM LOUISE 1945-10-02 03:00:00 TS 9.14657 160.298 main 1666 1644 P________PPP__ WP231945 9.13777 160.300 25 -1 9.13777 160.300 TC 25 9.17297 160.293 1 25 9.13777 160.300 25 1005 120 14 283
1945275N09161 1945 68 WP MM LOUISE 1945-10-02 06:00:00 TS 9.31155 159.597 main 1644 1623 O________OPO__ jtwc_wp WP231945 9.30000 159.600 25 -1 9.30000 159.600 TC 25 9.34622 159.588 1 25 9.30000 159.600 25 1005 120 14 285
1945275N09161 1945 68 WP MM LOUISE 1945-10-02 09:00:00 TS 9.50523 158.897 main 1623 1605 P________PPP__ WP231945 9.49986 158.900 25 -1 9.49986 158.900 TC 25 9.52134 158.889 1 25 9.49986 158.900 25 1005 150 14 286
1945275N09161 1945 68 WP MM LOUISE 1945-10-02 12:00:00 TS 9.70000 158.200 main 1605 1580 O________OOO__ jtwc_wp WP231945 9.70000 158.200 25 -1 9.70000 158.200 TC 25 9.70000 158.200 1 25 9.70000 158.200 25 1005 180 14 284
1945275N09161 1945 68 WP MM LOUISE 1945-10-02 15:00:00 TS 9.85284 157.500 main 1590 1566 P________PPP__ WP231945 9.84240 157.492 25 -1 9.84240 157.492 TC 25 9.88416 157.522 1 26 9.84240 157.492 25 1005 180 14 283
1945275N09161 1945 68 WP MM LOUISE 1945-10-02 18:00:00 TS 10.0192 156.812 main 1566 1558 O________OPO__ jtwc_wp WP231945 10.0000 156.800 25 -1 10.0000 156.800 TC 25 10.0768 156.849 1 27 10.0000 156.800 25 1005 180 14 287
1945275N09161 1945 68 WP MM LOUISE 1945-10-02 21:00:00 TS 10.2463 156.163 main 1560 1558 P________PPP__ WP231945 10.2347 156.157 27 -1 10.2347 156.157 TC 27 10.2810 156.178 1 28 10.2347 156.157 27 1004 150 14 290
1945275N09161 1945 68 WP MM LOUISE 1945-10-03 00:00:00 TS 10.5000 155.500 main 1564 1560 O________OOO__ jtwc_wp WP231945 10.5000 155.500 30 -1 10.5000 155.500 TC 30 10.5000 155.500 1 30 10.5000 155.500 30 1004 120 15 290
1945275N09161 1945 68 WP MM LOUISE 1945-10-03 03:00:00 TS 10.7463 154.763 main 1562 1562 P________PPP__ WP231945 10.7500 154.750 30 -1 10.7500 154.750 TC 30 10.7353 154.803 1 30 10.7500 154.750 30 1004 150 15 289
1945275N09161 1945 68 WP MM LOUISE 1945-10-03 06:00:00 TS 10.9961 154.025 main 1572 1570 O________OPO__ jtwc_wp WP231945 11.0000 154.000 30 -1 11.0000 154.000 TC 30 10.9846 154.100 1 30 11.0000 154.000 30 1004 180 15 290
1945275N09161 1945 68 WP MM LOUISE 1945-10-03 09:00:00 TS 11.2477 153.350 main 1581 1581 P________PPP__ WP231945 11.2498 153.335 30 -1 11.2498 153.335 TC 30 11.2415 153.397 1 30 11.2498 153.335 30 1004 150 14 291
1945275N09161 1945 68 WP MM LOUISE 1945-10-03 12:00:00 TS 11.5000 152.700 main 1603 1602 O________OOO__ jtwc_wp WP231945 11.5000 152.700 30 -1 11.5000 152.700 TC 30 11.5000 152.700 1 30 11.5000 152.700 30 1004 120 14 291
1945275N09161 1945 68 WP MM LOUISE 1945-10-03 15:00:00 TS 11.7476 152.052 main 1618 1618 P________PPP__ WP231945 11.7498 152.057 32 -1 11.7498 152.057 TC 32 11.7410 152.037 1 31 11.7498 152.057 32 1003 120 14 291
1945275N09161 1945 68 WP MM LOUISE 1945-10-03 18:00:00 TS 11.9959 151.395 main 1640 1637 O________OPO__ jtwc_wp WP231945 12.0000 151.400 35 0 12.0000 151.400 TC 35 11.9837 151.379 1 32 12.0000 151.400 35 1003 120 14 291
1945275N09161 1945 68 WP MM LOUISE 1945-10-03 21:00:00 TS 12.2345 150.741 main 1643 1643 P________PPP__ WP231945 12.2345 150.752 35 0 12.2345 150.752 TC 35 12.2346 150.706 1 33 12.2345 150.752 35 1002 120 15 290
1945275N09161 1945 68 WP MM LOUISE 1945-10-04 00:00:00 TS 12.5000 150.000 main 1660 1658 O________OOO__ jtwc_wp WP231945 12.5000 150.000 35 0 12.5000 150.000 TC 35 12.5000 150.000 2 35 12.5000 150.000 35 1002 120 18 290
1945275N09161 1945 68 WP MM LOUISE 1945-10-04 03:00:00 TS 12.8334 149.044 main 1678 1678 P________PPP__ WP231945 12.8507 148.985 35 0 12.8507 148.985 TC 35 12.7817 149.220 2 35 12.8507 148.985 35 1002 150 20 290
1945275N09161 1945 68 WP MM LOUISE 1945-10-04 06:00:00 TS 13.1694 148.102 main 1715 1715 O________OPO__ jtwc_wp WP231945 13.2000 148.000 35 0 13.2000 148.000 TC 35 13.0777 148.407 2 35 13.2000 148.000 35 1002 180 17 291
1945275N09161 1945 68 WP MM LOUISE 1945-10-04 09:00:00 TS 13.4387 147.414 main 1736 1736 P________PPP__ WP231945 13.4567 147.354 35 0 13.4567 147.354 TC 35 13.3848 147.591 2 35 13.4567 147.354 35 1001 210 14 293
1945275N09161 1945 68 WP MM LOUISE 1945-10-04 12:00:00 TS 13.7000 146.800 main 1770 1770 O________OOO__ jtwc_wp WP231945 13.7000 146.800 35 0 13.7000 146.800 TC 35 13.7000 146.800 2 35 13.7000 146.800 35 1001 240 14 293
1945275N09161 1945 68 WP MM LOUISE 1945-10-04 15:00:00 TS 13.9919 146.100 main 1804 1804 P________PPP__ WP231945 13.9849 146.115 37 0 13.9849 146.115 TC 37 14.0130 146.055 2 36 13.9849 146.115 37 1000 180 15 294
1945275N09161 1945 68 WP MM LOUISE 1945-10-04 18:00:00 TS 14.3085 145.385 main 1842 1842 O________OPO__ jtwc_wp WP231945 14.3000 145.400 40 0 14.3000 145.400 TC 40 14.3341 145.339 2 37 14.3000 145.400 40 1000 120 15 295
1945275N09161 1945 68 WP MM LOUISE 1945-10-04 21:00:00 TS 14.6420 144.677 main 1882 1882 P________PPP__ WP231945 14.6349 144.685 40 0 14.6349 144.685 TC 40 14.6632 144.655 2 38 14.6349 144.685 40 999 120 15 297
1945275N09161 1945 68 WP MM LOUISE 1945-10-05 00:00:00 TS 15.0000 144.000 main 1936 1936 O________OOO__ jtwc_wp WP231945 15.0000 144.000 40 0 15.0000 144.000 TC 40 15.0000 144.000 2 40 15.0000 144.000 40 998 120 15 301
1945275N09161 1945 68 WP MM LOUISE 1945-10-05 03:00:00 TS 15.3939 143.383 main 1966 1909 P________PPP__ WP231945 15.4072 143.385 40 0 15.4072 143.385 TC 40 15.3539 143.379 2 40 15.4072 143.385 40 997 150 14 304
1945275N09161 1945 68 WP MM LOUISE 1945-10-05 06:00:00 TS 15.7784 142.796 main 1909 1852 O________OPO__ jtwc_wp WP231945 15.8000 142.800 40 0 15.8000 142.800 TC 40 15.7136 142.784 2 40 15.8000 142.800 40 997 180 13 302
1945275N09161 1945 68 WP MM LOUISE 1945-10-05 09:00:00 TS 16.1027 142.205 main 1852 1797 P________PPP__ WP231945 16.1148 142.207 40 0 16.1148 142.207 TC 40 16.0665 142.198 2 40 16.1148 142.207 40 996 180 13 298
1945275N09161 1945 68 WP MM LOUISE 1945-10-05 12:00:00 TS 16.4000 141.600 main 1797 1743 O________OOO__ jtwc_wp WP231945 16.4000 141.600 40 0 16.4000 141.600 TC 40 16.4000 141.600 2 40 16.4000 141.600 40 995 180 13 297
1945275N09161 1945 68 WP MM LOUISE 1945-10-05 15:00:00 TS 16.7055 140.961 main 1743 1680 P________PPP__ WP231945 16.7074 140.957 42 0 16.7074 140.957 TC 42 16.7000 140.972 2 41 16.7074 140.957 42 994 210 14 296
1945275N09161 1945 68 WP MM LOUISE 1945-10-05 18:00:00 TS 16.9948 140.307 main 1680 1626 O________OPO__ jtwc_wp WP231945 17.0000 140.300 45 0 17.0000 140.300 TC 45 16.9791 140.329 2 42 17.0000 140.300 45 994 240 14 294
1945275N09161 1945 68 WP MM LOUISE 1945-10-05 21:00:00 TS 17.2538 139.661 main 1630 1567 P________PPP__ WP231945 17.2572 139.657 45 0 17.2572 139.657 TC 45 17.2437 139.672 2 43 17.2572 139.657 45 993 240 13 292
1945275N09161 1945 68 WP MM LOUISE 1945-10-06 00:00:00 TS 17.5000 139.000 main 1567 1506 O________OOO__ jtwc_wp WP231945 17.5000 139.000 45 0 17.5000 139.000 TC 45 17.5000 139.000 2 45 17.5000 139.000 45 992 240 14 291
1945275N09161 1945 68 WP MM LOUISE 1945-10-06 03:00:00 TS 17.7516 138.308 main 1510 1451 P________PPP__ WP231945 17.7498 138.307 45 0 17.7498 138.307 TC 45 17.7568 138.310 2 45 17.7498 138.307 45 992 300 14 291
1945275N09161 1945 68 WP MM LOUISE 1945-10-06 06:00:00 TS 18.0017 137.602 main 1451 1395 O________OPO__ jtwc_wp WP231945 18.0000 137.600 45 0 18.0000 137.600 TC 45 18.0070 137.607 2 45 18.0000 137.600 45 992 360 14 290
1945275N09161 1945 68 WP MM LOUISE 1945-10-06 09:00:00 TS 18.2507 136.900 main 1400 1346 P________PPP__ WP231945 18.2497 136.900 45 0 18.2497 136.900 TC 45 18.2536 136.900 2 45 18.2497 136.900 45 991 330 14 291
1945275N09161 1945 68 WP MM LOUISE 1945-10-06 12:00:00 TS 18.5000 136.200 main 1346 1295 O________OOO__ jtwc_wp WP231945 18.5000 136.200 45 0 18.5000 136.200 TC 45 18.5000 136.200 2 45 18.5000 136.200 45 991 300 14 291
1945275N09161 1945 68 WP MM LOUISE 1945-10-06 15:00:00 TS 18.7508 135.495 main 1301 1247 P________PPP__ WP231945 18.7498 135.492 45 0 18.7498 135.492 TC 45 18.7536 135.501 2 46 18.7498 135.492 45 991 330 14 291
1945275N09161 1945 68 WP MM LOUISE 1945-10-06 18:00:00 TS 19.0017 134.803 main 1247 1200 O________OPO__ jtwc_wp WP231945 19.0000 134.800 45 0 19.0000 134.800 TC 45 19.0070 134.812 2 47 19.0000 134.800 45 991 360 14 292
1945275N09161 1945 68 WP MM LOUISE 1945-10-06 21:00:00 TS 19.2572 134.137 main 1197 1153 P________PPP__ WP231945 19.2573 134.135 47 0 19.2573 134.135 TC 47 19.2568 134.142 2 48 19.2573 134.135 47 990 420 13 292
1945275N09161 1945 68 WP MM LOUISE 1945-10-07 00:00:00 TS 19.5000 133.500 main 1153 1113 O________OOO__ jtwc_wp WP231945 19.5000 133.500 50 0 19.5000 133.500 TC 50 19.5000 133.500 2 50 19.5000 133.500 50 990 480 13 291
1945275N09161 1945 68 WP MM LOUISE 1945-10-07 03:00:00 TS 19.7056 132.886 main 1113 1063 P________PPP__ WP231945 19.6998 132.885 50 0 19.6998 132.885 TC 50 19.7231 132.891 2 51 19.6998 132.885 50 989 510 12 290
1945275N09161 1945 68 WP MM LOUISE 1945-10-07 06:00:00 TS 19.9103 132.303 main 1063 1015 O________OPO__ jtwc_wp WP231945 19.9000 132.300 50 0 19.9000 132.300 TC 50 19.9413 132.311 2 52 19.9000 132.300 50 989 540 12 292
1945275N09161 1945 68 WP MM LOUISE 1945-10-07 09:00:00 TS 20.1420 131.750 main 1004 959 P________PPP__ WP231945 20.1347 131.750 52 0 20.1347 131.750 TC 52 20.1639 131.751 2 53 20.1347 131.750 52 988 510 11 295
1945275N09161 1945 68 WP MM LOUISE 1945-10-07 12:00:00 TS 20.4000 131.200 main 959 906 O________OOO__ jtwc_wp WP231945 20.4000 131.200 55 0 20.4000 131.200 TC 55 20.4000 131.200 2 55 20.4000 131.200 55 988 480 12 297
1945275N09161 1945 68 WP MM LOUISE 1945-10-07 15:00:00 TS 20.6882 130.593 main 906 856 P________PPP__ WP231945 20.7000 130.593 55 0 20.7000 130.593 TC 55 20.6528 130.594 2 56 20.7000 130.593 55 987 480 13 297
1945275N09161 1945 68 WP MM LOUISE 1945-10-07 18:00:00 TS 20.9801 130.001 main 856 815 O________OPO__ jtwc_wp WP231945 21.0000 130.000 55 0 21.0000 130.000 TC 55 20.9205 130.003 2 57 21.0000 130.000 55 986 480 12 298
1945275N09161 1945 68 WP MM LOUISE 1945-10-07 21:00:00 TS 21.2438 129.451 main 815 781 P________PPP__ WP231945 21.2575 129.447 57 0 21.2575 129.447 TC 57 21.2029 129.460 2 58 21.2575 129.447 57 985 450 11 299
1945275N09161 1945 68 WP MM LOUISE 1945-10-08 00:00:00 TS 21.5000 129.000 main 781 762 O________OOO__ jtwc_wp WP231945 21.5000 129.000 60 0 21.5000 129.000 TC 60 21.5000 129.000 2 60 21.5000 129.000 60 984 420 9 305
1945275N09161 1945 68 WP MM LOUISE 1945-10-08 03:00:00 TS 21.7438 128.695 main 762 729 P________PPP__ WP231945 21.7272 128.712 60 0 21.7272 128.712 TC 60 21.7935 128.643 2 60 21.7272 128.712 60 983 480 7 317
1945275N09161 1945 68 WP MM LOUISE 1945-10-08 06:00:00 TS 22.0260 128.468 main 729 683 O________OPO__ jtwc_wp WP231945 22.0000 128.500 60 0 22.0000 128.500 TC 60 22.1039 128.372 2 60 22.0000 128.500 60 982 540 8 326
1945275N09161 1945 68 WP MM LOUISE 1945-10-08 09:00:00 TS 22.3981 128.223 main 683 649 P________PPP__ WP231945 22.3850 128.243 60 0 22.3850 128.243 TC 60 22.4375 128.165 2 60 22.3850 128.243 60 981 510 9 331
1945275N09161 1945 68 WP MM LOUISE 1945-10-08 12:00:00 TS 22.8000 128.000 main 649 619 O________OOO__ jtwc_wp WP231945 22.8000 128.000 60 0 22.8000 128.000 TC 60 22.8000 128.000 2 60 22.8000 128.000 60 980 480 9 331
1945275N09161 1945 68 WP MM LOUISE 1945-10-08 15:00:00 TS 23.1422 127.781 main 619 589 P________PPP__ WP231945 23.1350 127.770 60 0 23.1350 127.770 TC 60 23.1637 127.815 2 61 23.1350 127.770 60 979 480 8 334
1945275N09161 1945 68 WP MM LOUISE 1945-10-08 18:00:00 TS 23.5150 127.617 main 589 569 O________OPO__ jtwc_wp WP231945 23.5000 127.600 60 0 23.5000 127.600 TC 60 23.5599 127.668 2 62 23.5000 127.600 60 978 480 9 344
1945275N09161 1945 68 WP MM LOUISE 1945-10-08 21:00:00 TS 23.9665 127.530 main 567 557 P________PPP__ WP231945 23.9550 127.520 62 0 23.9550 127.520 TC 62 24.0012 127.562 2 63 23.9550 127.520 62 977 480 10 354
1945275N09161 1945 68 WP MM LOUISE 1945-10-09 00:00:00 TS 24.5000 127.500 main 557 553 O________OOO__ jtwc_wp WP231945 24.5000 127.500 65 1 24.5000 127.500 TC 65 24.5000 127.500 3 65 24.5000 127.500 65 976 480 12 357
1945275N09161 1945 68 WP MM LOUISE 1945-10-09 03:00:00 TS 25.1181 127.476 main 553 553 P________PPP__ WP231945 25.1350 127.485 65 1 25.1350 127.485 TC 65 25.0674 127.450 3 65 25.1350 127.485 65 975 450 13 0
1945275N09161 1945 68 WP MM LOUISE 1945-10-09 06:00:00 TS 25.7724 127.487 main 559 559 O________OPO__ jtwc_wp WP231945 25.8000 127.500 65 1 25.8000 127.500 TC 65 25.6898 127.446 3 65 25.8000 127.500 65 975 420 13 2
1945275N09161 1945 68 WP MM LOUISE 1945-10-09 09:00:00 TS 26.3855 127.514 main 572 532 P________PPP__ WP231945 26.3999 127.520 65 1 26.3999 127.520 TC 65 26.3423 127.494 3 65 26.3999 127.520 65 974 390 12 5
1945275N09161 1945 68 WP MM LOUISE 1945-10-09 12:00:00 TS 27.0000 127.600 main 532 468 O________OOO__ jtwc_wp WP231945 27.0000 127.600 65 1 27.0000 127.600 TC 65 27.0000 127.600 4 65 27.0000 127.600 65 974 360 13 9
1945275N09161 1945 68 WP MM LOUISE 1945-10-09 15:00:00 TS 27.6434 127.749 main 468 392 P________PPP__ WP231945 27.6500 127.770 65 1 27.6500 127.770 TC 65 27.6236 127.685 4 63 27.6500 127.770 65 974 360 13 14
1945275N09161 1945 68 WP MM LOUISE 1945-10-09 18:00:00 TS 28.2869 127.959 main 386 326 O________OPO__ jtwc_wp WP231945 28.3000 128.000 65 1 28.3000 128.000 TC 65 28.2475 127.838 4 62 28.3000 128.000 65 974 360 13 16
1945275N09161 1945 68 WP MM LOUISE 1945-10-09 21:00:00 TS 28.8871 128.157 main 320 250 P________PPP__ WP231945 28.8919 128.177 62 0 28.8919 128.177 TC 62 28.8727 128.096 4 61 28.8919 128.177 62 974 330 13 21
1945275N09161 1945 68 WP MM LOUISE 1945-10-10 00:00:00 TS 29.5000 128.500 main 250 153 O________OOO__ jtwc_wp WP231945 29.5000 128.500 60 0 29.5000 128.500 TC 60 29.5000 128.500 2 60 29.5000 128.500 60 975 300 15 32
1945275N09161 1945 68 WP MM LOUISE 1945-10-10 03:00:00 TS 30.1923 129.107 main 153 58 P________PPP__ WP231945 30.2077 129.117 60 0 30.2077 129.117 TC 60 30.1462 129.077 2 58 30.2077 129.117 60 976 300 18 41
1945275N09161 1945 68 WP MM LOUISE 1945-10-10 06:00:00 TS 30.8721 129.876 main 43 0 O________OPO__ jtwc_wp WP231945 30.9000 129.900 60 0 30.9000 129.900 TC 60 30.7886 129.803 2 57 30.9000 129.900 60 977 300 19 47
1945275N09161 1945 68 WP MM LOUISE 1945-10-10 09:00:00 TS 31.4628 130.677 main 9 0 P________PPP__ WP231945 31.4799 130.693 57 0 31.4799 130.693 TC 57 31.4114 130.628 2 56 31.4799 130.693 57 977 330 18 51
1945275N09161 1945 68 WP MM LOUISE 1945-10-10 12:00:00 TS 32.0000 131.500 main 0 0 O________OOO__ jtwc_wp WP231945 32.0000 131.500 55 0 32.0000 131.500 TC 55 32.0000 131.500 2 55 32.0000 131.500 55 978 360 17 52
1945275N09161 1945 68 WP MM LOUISE 1945-10-10 15:00:00 TS 32.5159 132.260 main 43 0 P________PPP__ WP231945 32.5062 132.222 55 0 32.5062 132.222 TC 55 32.5450 132.375 2 53 32.5062 132.222 55 978 360 17 52
1945275N09161 1945 68 WP MM LOUISE 1945-10-10 18:00:00 TS 33.0106 133.050 main 0 0 O________OPO__ jtwc_wp WP231945 33.0000 133.000 55 0 33.0000 133.000 TC 55 33.0531 133.248 2 52 33.0000 133.000 55 979 360 18 56
1945275N09161 1945 68 WP MM LOUISE 1945-10-10 21:00:00 TS 33.4987 133.992 main 0 0 P________PPP__ WP231945 33.4927 133.971 52 0 33.4927 133.971 TC 52 33.5348 134.121 2 51 33.4927 133.971 52 979 330 19 59
1945275N09161 1945 68 WP MM LOUISE 1945-10-11 00:00:00 TS 34.0000 135.000 main 14 0 O________OOO__ jtwc_wp WP231945 34.0000 135.000 50 0 34.0000 135.000 TC 50 34.0000 135.000 2 50 34.0000 135.000 50 980 300 19 61
1945275N09161 1945 68 WP MM LOUISE 1945-10-11 03:00:00 TS 34.4345 136.011 main 0 0 P________P_P__ WP231945 34.4079 136.021 50 0 34.4079 136.021 TC 50 2 34.5408 135.970 50 980 270 19 55
1945275N09161 1945 68 WP MM LOUISE 1945-10-11 06:00:00 TS 35.1000 136.900 main 0 0 O________O_O__ jtwc_wp WP231945 35.1000 136.900 50 0 35.1000 136.900 TC 50 2 35.1000 136.900 50 981 240 25 32
1945275N09161 1945 68 WP MM LOUISE 1945-10-11 09:00:00 TS 36.5570 137.624 main 0 0 P________P____ WP231945 36.5570 137.624 45 0 36.5570 137.624 TC 45 2 30 17
1945275N09161 1945 68 WP MM LOUISE 1945-10-11 12:00:00 TS 38.0000 138.000 main 73 73 O________O____ jtwc_wp WP231945 38.0000 138.000 40 0 38.0000 138.000 TC 40 21 5
1945275N09161 1945 68 WP MM LOUISE 1945-10-11 15:00:00 TS 38.6796 137.874 main 127 127 P________P____ WP231945 38.6796 137.874 35 0 38.6796 137.874 TC 35 11 339
1945275N09161 1945 68 WP MM LOUISE 1945-10-11 18:00:00 TS 39.0000 137.500 main 174 174 O________O____ jtwc_wp WP231945 39.0000 137.500 30 -1 39.0000 137.500 TC 30 8 318
1945275N09161 1945 68 WP MM LOUISE 1945-10-11 21:00:00 TS 39.2525 137.209 main 211 211 P________P____ WP231945 39.2525 137.209 30 -1 39.2525 137.209 TC 30 6 322
1945275N09161 1945 68 WP MM LOUISE 1945-10-12 00:00:00 TS 39.5000 137.000 main 233 O________O____ jtwc_wp WP231945 39.5000 137.000 30 -1 39.5000 137.000 TC 30 6 327

Digital Typhoon Data and Search

About IBTrACS Database

This database is a web-friendly format of International Best Track Archive for Climate Stewardship (IBTrACS), a global best track data archive curated by NOAA dating back to 1842.

Updated: 2021-10-21